sensor_id;sensor_type;location;lat;lon;timestamp;P1;durP1;ratioP1;P2;durP2;ratioP2
36221;SDS011;22266;52.340;4.962;2022-11-23T00:03:48;23.00;;;19.00;;
36221;SDS011;22266;52.340;4.962;2022-11-23T00:06:16;17.75;;;17.00;;
36221;SDS011;22266;52.340;4.962;2022-11-23T00:08:43;13.75;;;11.75;;
36221;SDS011;22266;52.340;4.962;2022-11-23T00:11:10;18.00;;;16.00;;
36221;SDS011;22266;52.340;4.962;2022-11-23T00:13:37;25.25;;;22.25;;
36221;SDS011;22266;52.340;4.962;2022-11-23T00:16:06;21.25;;;20.00;;
36221;SDS011;22266;52.340;4.962;2022-11-23T00:18:33;22.75;;;19.75;;
36221;SDS011;22266;52.340;4.962;2022-11-23T00:21:11;19.00;;;17.50;;
36221;SDS011;22266;52.340;4.962;2022-11-23T00:23:39;22.25;;;13.75;;
36221;SDS011;22266;52.340;4.962;2022-11-23T00:26:06;15.00;;;14.50;;
36221;SDS011;22266;52.340;4.962;2022-11-23T00:28:33;26.50;;;21.50;;
36221;SDS011;22266;52.340;4.962;2022-11-23T00:31:02;13.25;;;13.25;;
36221;SDS011;22266;52.340;4.962;2022-11-23T00:33:28;30.50;;;23.75;;
36221;SDS011;22266;52.340;4.962;2022-11-23T00:35:59;26.75;;;21.00;;
36221;SDS011;22266;52.340;4.962;2022-11-23T00:38:33;20.25;;;19.50;;
36221;SDS011;22266;52.340;4.962;2022-11-23T00:41:00;26.00;;;20.00;;
36221;SDS011;22266;52.340;4.962;2022-11-23T00:43:28;27.75;;;21.75;;
36221;SDS011;22266;52.340;4.962;2022-11-23T00:48:42;19.50;;;15.75;;
36221;SDS011;22266;52.340;4.962;2022-11-23T00:51:11;19.50;;;15.75;;
36221;SDS011;22266;52.340;4.962;2022-11-23T00:53:39;27.75;;;22.75;;
36221;SDS011;22266;52.340;4.962;2022-11-23T00:56:06;27.50;;;21.25;;
36221;SDS011;22266;52.340;4.962;2022-11-23T00:58:33;24.25;;;24.00;;
36221;SDS011;22266;52.340;4.962;2022-11-23T01:01:05;27.75;;;16.50;;
36221;SDS011;22266;52.340;4.962;2022-11-23T01:03:37;24.25;;;23.50;;
36221;SDS011;22266;52.340;4.962;2022-11-23T01:06:06;17.75;;;16.25;;
36221;SDS011;22266;52.340;4.962;2022-11-23T01:08:38;19.00;;;18.50;;
36221;SDS011;22266;52.340;4.962;2022-11-23T01:11:06;19.50;;;17.25;;
36221;SDS011;22266;52.340;4.962;2022-11-23T01:13:38;18.75;;;17.00;;
36221;SDS011;22266;52.340;4.962;2022-11-23T01:16:06;19.00;;;18.50;;
36221;SDS011;22266;52.340;4.962;2022-11-23T01:18:38;19.25;;;17.25;;
36221;SDS011;22266;52.340;4.962;2022-11-23T01:21:04;19.75;;;15.00;;
36221;SDS011;22266;52.340;4.962;2022-11-23T01:23:31;17.75;;;15.00;;
36221;SDS011;22266;52.340;4.962;2022-11-23T01:26:02;22.25;;;17.50;;
36221;SDS011;22266;52.340;4.962;2022-11-23T01:28:32;25.25;;;23.75;;
36221;SDS011;22266;52.340;4.962;2022-11-23T01:31:03;27.50;;;25.25;;
36221;SDS011;22266;52.340;4.962;2022-11-23T01:33:35;24.75;;;23.75;;
36221;SDS011;22266;52.340;4.962;2022-11-23T01:36:12;20.25;;;19.25;;
36221;SDS011;22266;52.340;4.962;2022-11-23T01:38:42;18.50;;;18.00;;
36221;SDS011;22266;52.340;4.962;2022-11-23T01:41:11;23.75;;;23.00;;
36221;SDS011;22266;52.340;4.962;2022-11-23T01:43:41;24.25;;;22.25;;
36221;SDS011;22266;52.340;4.962;2022-11-23T01:46:07;30.75;;;24.75;;
36221;SDS011;22266;52.340;4.962;2022-11-23T01:51:08;34.50;;;28.25;;
36221;SDS011;22266;52.340;4.962;2022-11-23T01:53:38;29.75;;;24.00;;
36221;SDS011;22266;52.340;4.962;2022-11-23T01:56:06;25.50;;;23.75;;
36221;SDS011;22266;52.340;4.962;2022-11-23T01:58:39;28.00;;;25.00;;
36221;SDS011;22266;52.340;4.962;2022-11-23T02:01:09;30.00;;;21.50;;
36221;SDS011;22266;52.340;4.962;2022-11-23T02:03:36;31.25;;;28.50;;
36221;SDS011;22266;52.340;4.962;2022-11-23T02:06:09;30.00;;;28.25;;
36221;SDS011;22266;52.340;4.962;2022-11-23T02:08:40;23.25;;;22.75;;
36221;SDS011;22266;52.340;4.962;2022-11-23T02:11:07;28.50;;;26.50;;
36221;SDS011;22266;52.340;4.962;2022-11-23T02:13:36;37.00;;;28.25;;
36221;SDS011;22266;52.340;4.962;2022-11-23T02:16:02;24.25;;;23.25;;
36221;SDS011;22266;52.340;4.962;2022-11-23T02:18:30;24.00;;;21.00;;
36221;SDS011;22266;52.340;4.962;2022-11-23T02:20:59;21.75;;;21.00;;
36221;SDS011;22266;52.340;4.962;2022-11-23T02:26:15;30.00;;;23.75;;
36221;SDS011;22266;52.340;4.962;2022-11-23T02:28:47;24.25;;;21.25;;
36221;SDS011;22266;52.340;4.962;2022-11-23T02:31:19;23.25;;;23.00;;
36221;SDS011;22266;52.340;4.962;2022-11-23T02:33:45;22.25;;;21.00;;
36221;SDS011;22266;52.340;4.962;2022-11-23T02:39:07;17.50;;;17.50;;
36221;SDS011;22266;52.340;4.962;2022-11-23T02:41:38;27.00;;;21.75;;
36221;SDS011;22266;52.340;4.962;2022-11-23T02:44:13;22.50;;;21.50;;
36221;SDS011;22266;52.340;4.962;2022-11-23T02:46:59;25.00;;;21.00;;
36221;SDS011;22266;52.340;4.962;2022-11-23T02:49:26;31.50;;;22.00;;
36221;SDS011;22266;52.340;4.962;2022-11-23T02:51:53;26.00;;;22.00;;
36221;SDS011;22266;52.340;4.962;2022-11-23T02:54:23;17.00;;;15.00;;
36221;SDS011;22266;52.340;4.962;2022-11-23T02:56:50;21.00;;;17.00;;
36221;SDS011;22266;52.340;4.962;2022-11-23T02:59:17;17.25;;;15.75;;
36221;SDS011;22266;52.340;4.962;2022-11-23T03:01:44;14.00;;;13.75;;
36221;SDS011;22266;52.340;4.962;2022-11-23T03:04:11;14.00;;;14.00;;
36221;SDS011;22266;52.340;4.962;2022-11-23T03:06:38;19.50;;;15.50;;
36221;SDS011;22266;52.340;4.962;2022-11-23T03:09:05;22.00;;;19.00;;
36221;SDS011;22266;52.340;4.962;2022-11-23T03:11:32;16.00;;;13.50;;
36221;SDS011;22266;52.340;4.962;2022-11-23T03:14:00;14.75;;;13.75;;
36221;SDS011;22266;52.340;4.962;2022-11-23T03:16:29;15.75;;;13.50;;
36221;SDS011;22266;52.340;4.962;2022-11-23T03:18:57;18.75;;;16.75;;
36221;SDS011;22266;52.340;4.962;2022-11-23T03:21:24;23.25;;;15.25;;
36221;SDS011;22266;52.340;4.962;2022-11-23T03:23:50;16.00;;;13.50;;
36221;SDS011;22266;52.340;4.962;2022-11-23T03:26:18;19.50;;;15.75;;
36221;SDS011;22266;52.340;4.962;2022-11-23T03:28:54;16.25;;;13.50;;
36221;SDS011;22266;52.340;4.962;2022-11-23T03:31:25;17.25;;;15.75;;
36221;SDS011;22266;52.340;4.962;2022-11-23T03:33:52;17.50;;;15.00;;
36221;SDS011;22266;52.340;4.962;2022-11-23T03:36:19;11.75;;;11.75;;
36221;SDS011;22266;52.340;4.962;2022-11-23T03:38:46;15.25;;;12.00;;
36221;SDS011;22266;52.340;4.962;2022-11-23T03:41:30;19.50;;;19.00;;
36221;SDS011;22266;52.340;4.962;2022-11-23T03:43:58;23.50;;;18.25;;
36221;SDS011;22266;52.340;4.962;2022-11-23T03:46:24;20.75;;;14.25;;
36221;SDS011;22266;52.340;4.962;2022-11-23T03:48:50;18.50;;;18.00;;
36221;SDS011;22266;52.340;4.962;2022-11-23T03:51:17;22.00;;;17.00;;
36221;SDS011;22266;52.340;4.962;2022-11-23T03:53:43;13.50;;;13.50;;
36221;SDS011;22266;52.340;4.962;2022-11-23T03:56:11;14.25;;;11.50;;
36221;SDS011;22266;52.340;4.962;2022-11-23T03:58:41;20.00;;;17.50;;
36221;SDS011;22266;52.340;4.962;2022-11-23T04:01:10;16.75;;;15.75;;
36221;SDS011;22266;52.340;4.962;2022-11-23T04:03:37;16.00;;;16.00;;
36221;SDS011;22266;52.340;4.962;2022-11-23T04:06:11;18.50;;;15.00;;
36221;SDS011;22266;52.340;4.962;2022-11-23T04:08:47;15.00;;;15.00;;
36221;SDS011;22266;52.340;4.962;2022-11-23T04:11:22;16.50;;;14.50;;
36221;SDS011;22266;52.340;4.962;2022-11-23T04:13:48;24.75;;;20.00;;
36221;SDS011;22266;52.340;4.962;2022-11-23T04:16:17;16.00;;;14.25;;
36221;SDS011;22266;52.340;4.962;2022-11-23T04:18:44;25.50;;;22.75;;
36221;SDS011;22266;52.340;4.962;2022-11-23T04:21:10;28.50;;;23.25;;
36221;SDS011;22266;52.340;4.962;2022-11-23T04:23:37;28.25;;;20.50;;
36221;SDS011;22266;52.340;4.962;2022-11-23T04:26:06;22.50;;;20.75;;
36221;SDS011;22266;52.340;4.962;2022-11-23T04:28:37;25.25;;;21.50;;
36221;SDS011;22266;52.340;4.962;2022-11-23T04:31:03;23.50;;;18.50;;
36221;SDS011;22266;52.340;4.962;2022-11-23T04:33:40;22.00;;;20.00;;
36221;SDS011;22266;52.340;4.962;2022-11-23T04:36:07;21.00;;;19.25;;
36221;SDS011;22266;52.340;4.962;2022-11-23T04:38:34;24.00;;;21.00;;
36221;SDS011;22266;52.340;4.962;2022-11-23T04:41:01;25.00;;;20.50;;
36221;SDS011;22266;52.340;4.962;2022-11-23T04:43:27;24.00;;;19.75;;
36221;SDS011;22266;52.340;4.962;2022-11-23T04:45:54;26.00;;;22.50;;
36221;SDS011;22266;52.340;4.962;2022-11-23T04:48:27;22.00;;;19.00;;
36221;SDS011;22266;52.340;4.962;2022-11-23T04:50:55;22.75;;;18.50;;
36221;SDS011;22266;52.340;4.962;2022-11-23T04:53:27;20.00;;;19.50;;
36221;SDS011;22266;52.340;4.962;2022-11-23T04:55:56;19.25;;;19.25;;
36221;SDS011;22266;52.340;4.962;2022-11-23T04:58:22;20.25;;;18.50;;
36221;SDS011;22266;52.340;4.962;2022-11-23T05:00:54;19.75;;;15.25;;
36221;SDS011;22266;52.340;4.962;2022-11-23T05:03:22;16.75;;;13.50;;
36221;SDS011;22266;52.340;4.962;2022-11-23T05:05:49;20.50;;;14.25;;
36221;SDS011;22266;52.340;4.962;2022-11-23T05:08:16;18.75;;;16.00;;
36221;SDS011;22266;52.340;4.962;2022-11-23T05:10:48;18.50;;;14.00;;
36221;SDS011;22266;52.340;4.962;2022-11-23T05:13:15;14.25;;;13.25;;
36221;SDS011;22266;52.340;4.962;2022-11-23T05:15:43;18.00;;;15.00;;
36221;SDS011;22266;52.340;4.962;2022-11-23T05:18:12;19.75;;;17.00;;
36221;SDS011;22266;52.340;4.962;2022-11-23T05:20:38;18.25;;;14.75;;
36221;SDS011;22266;52.340;4.962;2022-11-23T05:23:05;19.50;;;17.50;;
36221;SDS011;22266;52.340;4.962;2022-11-23T05:25:33;20.75;;;18.25;;
36221;SDS011;22266;52.340;4.962;2022-11-23T05:28:02;22.25;;;18.75;;
36221;SDS011;22266;52.340;4.962;2022-11-23T05:30:49;21.50;;;17.00;;
36221;SDS011;22266;52.340;4.962;2022-11-23T05:33:15;19.25;;;16.75;;
36221;SDS011;22266;52.340;4.962;2022-11-23T05:35:42;14.50;;;13.75;;
36221;SDS011;22266;52.340;4.962;2022-11-23T05:38:09;26.50;;;20.00;;
36221;SDS011;22266;52.340;4.962;2022-11-23T05:40:35;21.00;;;18.00;;
36221;SDS011;22266;52.340;4.962;2022-11-23T05:43:03;16.25;;;14.25;;
36221;SDS011;22266;52.340;4.962;2022-11-23T05:45:29;21.75;;;16.25;;
36221;SDS011;22266;52.340;4.962;2022-11-23T05:47:57;18.75;;;18.00;;
36221;SDS011;22266;52.340;4.962;2022-11-23T05:50:39;22.25;;;18.25;;
36221;SDS011;22266;52.340;4.962;2022-11-23T05:53:22;12.75;;;11.75;;
36221;SDS011;22266;52.340;4.962;2022-11-23T05:55:57;22.00;;;15.00;;
36221;SDS011;22266;52.340;4.962;2022-11-23T05:58:26;19.25;;;17.25;;
36221;SDS011;22266;52.340;4.962;2022-11-23T06:00:57;21.75;;;17.00;;
36221;SDS011;22266;52.340;4.962;2022-11-23T06:03:26;17.25;;;15.25;;
36221;SDS011;22266;52.340;4.962;2022-11-23T06:05:53;16.00;;;13.50;;
36221;SDS011;22266;52.340;4.962;2022-11-23T06:08:27;15.50;;;15.00;;
36221;SDS011;22266;52.340;4.962;2022-11-23T06:10:53;21.25;;;18.75;;
36221;SDS011;22266;52.340;4.962;2022-11-23T06:13:21;19.50;;;16.00;;
36221;SDS011;22266;52.340;4.962;2022-11-23T06:15:47;14.25;;;13.25;;
36221;SDS011;22266;52.340;4.962;2022-11-23T06:18:20;21.00;;;17.75;;
36221;SDS011;22266;52.340;4.962;2022-11-23T06:20:48;16.50;;;16.50;;
36221;SDS011;22266;52.340;4.962;2022-11-23T06:23:14;22.50;;;18.50;;
36221;SDS011;22266;52.340;4.962;2022-11-23T06:25:40;25.00;;;19.75;;
36221;SDS011;22266;52.340;4.962;2022-11-23T06:28:22;20.50;;;18.00;;
36221;SDS011;22266;52.340;4.962;2022-11-23T06:30:51;15.50;;;15.50;;
36221;SDS011;22266;52.340;4.962;2022-11-23T06:33:18;27.75;;;21.50;;
36221;SDS011;22266;52.340;4.962;2022-11-23T06:35:54;15.75;;;14.75;;
36221;SDS011;22266;52.340;4.962;2022-11-23T06:38:24;16.75;;;14.00;;
36221;SDS011;22266;52.340;4.962;2022-11-23T06:40:59;18.00;;;14.50;;
36221;SDS011;22266;52.340;4.962;2022-11-23T06:43:29;20.25;;;16.50;;
36221;SDS011;22266;52.340;4.962;2022-11-23T06:45:56;24.00;;;23.50;;
36221;SDS011;22266;52.340;4.962;2022-11-23T06:48:26;13.25;;;13.00;;
36221;SDS011;22266;52.340;4.962;2022-11-23T06:50:57;16.00;;;13.00;;
36221;SDS011;22266;52.340;4.962;2022-11-23T06:53:27;12.50;;;11.00;;
36221;SDS011;22266;52.340;4.962;2022-11-23T06:55:58;15.25;;;13.50;;
36221;SDS011;22266;52.340;4.962;2022-11-23T06:58:27;15.50;;;13.00;;
36221;SDS011;22266;52.340;4.962;2022-11-23T07:00:58;12.75;;;11.75;;
36221;SDS011;22266;52.340;4.962;2022-11-23T07:03:34;16.75;;;13.25;;
36221;SDS011;22266;52.340;4.962;2022-11-23T07:06:08;16.00;;;13.50;;
36221;SDS011;22266;52.340;4.962;2022-11-23T07:08:36;15.50;;;13.00;;
36221;SDS011;22266;52.340;4.962;2022-11-23T07:11:22;13.25;;;10.25;;
36221;SDS011;22266;52.340;4.962;2022-11-23T07:13:48;15.00;;;14.50;;
36221;SDS011;22266;52.340;4.962;2022-11-23T07:16:14;13.00;;;12.75;;
36221;SDS011;22266;52.340;4.962;2022-11-23T07:18:41;15.50;;;13.50;;
36221;SDS011;22266;52.340;4.962;2022-11-23T07:21:07;15.50;;;12.00;;
36221;SDS011;22266;52.340;4.962;2022-11-23T07:23:34;12.00;;;9.50;;
36221;SDS011;22266;52.340;4.962;2022-11-23T07:26:07;10.75;;;9.50;;
36221;SDS011;22266;52.340;4.962;2022-11-23T07:28:34;11.25;;;8.50;;
36221;SDS011;22266;52.340;4.962;2022-11-23T07:31:00;13.00;;;10.25;;
36221;SDS011;22266;52.340;4.962;2022-11-23T07:33:27;14.00;;;13.50;;
36221;SDS011;22266;52.340;4.962;2022-11-23T07:35:54;13.50;;;13.00;;
36221;SDS011;22266;52.340;4.962;2022-11-23T07:38:21;11.00;;;11.00;;
36221;SDS011;22266;52.340;4.962;2022-11-23T07:40:48;14.25;;;9.75;;
36221;SDS011;22266;52.340;4.962;2022-11-23T07:43:33;11.00;;;11.00;;
36221;SDS011;22266;52.340;4.962;2022-11-23T07:46:00;10.50;;;10.50;;
36221;SDS011;22266;52.340;4.962;2022-11-23T07:48:27;8.00;;;8.00;;
36221;SDS011;22266;52.340;4.962;2022-11-23T07:51:01;7.50;;;7.25;;
36221;SDS011;22266;52.340;4.962;2022-11-23T07:53:27;8.75;;;8.75;;
36221;SDS011;22266;52.340;4.962;2022-11-23T07:55:54;7.75;;;5.50;;
36221;SDS011;22266;52.340;4.962;2022-11-23T07:58:22;5.25;;;3.75;;
36221;SDS011;22266;52.340;4.962;2022-11-23T08:00:48;6.25;;;4.00;;
36221;SDS011;22266;52.340;4.962;2022-11-23T08:03:15;4.00;;;4.00;;
36221;SDS011;22266;52.340;4.962;2022-11-23T08:05:57;6.50;;;5.50;;
36221;SDS011;22266;52.340;4.962;2022-11-23T08:08:23;3.25;;;3.25;;
36221;SDS011;22266;52.340;4.962;2022-11-23T08:10:50;5.00;;;2.50;;
36221;SDS011;22266;52.340;4.962;2022-11-23T08:13:19;3.00;;;3.00;;
36221;SDS011;22266;52.340;4.962;2022-11-23T08:15:46;3.75;;;2.25;;
36221;SDS011;22266;52.340;4.962;2022-11-23T08:18:20;2.50;;;2.50;;
36221;SDS011;22266;52.340;4.962;2022-11-23T08:20:46;3.00;;;3.00;;
36221;SDS011;22266;52.340;4.962;2022-11-23T08:23:13;4.75;;;1.75;;
36221;SDS011;22266;52.340;4.962;2022-11-23T08:25:39;5.50;;;2.75;;
36221;SDS011;22266;52.340;4.962;2022-11-23T08:28:06;3.75;;;3.75;;
36221;SDS011;22266;52.340;4.962;2022-11-23T08:30:32;3.75;;;1.25;;
36221;SDS011;22266;52.340;4.962;2022-11-23T08:33:03;3.00;;;3.00;;
36221;SDS011;22266;52.340;4.962;2022-11-23T08:35:36;1.00;;;1.00;;
36221;SDS011;22266;52.340;4.962;2022-11-23T08:38:04;4.75;;;3.75;;
36221;SDS011;22266;52.340;4.962;2022-11-23T08:40:32;3.75;;;2.00;;
36221;SDS011;22266;52.340;4.962;2022-11-23T08:42:59;2.00;;;2.00;;
36221;SDS011;22266;52.340;4.962;2022-11-23T08:45:25;1.50;;;1.50;;
36221;SDS011;22266;52.340;4.962;2022-11-23T08:47:52;3.50;;;1.75;;
36221;SDS011;22266;52.340;4.962;2022-11-23T08:50:19;2.00;;;1.50;;
36221;SDS011;22266;52.340;4.962;2022-11-23T08:52:45;4.50;;;3.50;;
36221;SDS011;22266;52.340;4.962;2022-11-23T08:55:12;1.25;;;0.75;;
36221;SDS011;22266;52.340;4.962;2022-11-23T08:57:39;3.00;;;2.00;;
36221;SDS011;22266;52.340;4.962;2022-11-23T09:00:05;2.50;;;2.50;;
36221;SDS011;22266;52.340;4.962;2022-11-23T09:02:32;2.00;;;2.00;;
36221;SDS011;22266;52.340;4.962;2022-11-23T09:04:59;2.50;;;2.00;;
36221;SDS011;22266;52.340;4.962;2022-11-23T09:07:25;4.00;;;1.00;;
36221;SDS011;22266;52.340;4.962;2022-11-23T09:09:52;2.75;;;2.00;;
36221;SDS011;22266;52.340;4.962;2022-11-23T09:12:18;4.00;;;1.00;;
36221;SDS011;22266;52.340;4.962;2022-11-23T09:14:45;3.50;;;1.75;;
36221;SDS011;22266;52.340;4.962;2022-11-23T09:17:11;2.00;;;2.00;;
36221;SDS011;22266;52.340;4.962;2022-11-23T09:19:37;3.25;;;1.00;;
36221;SDS011;22266;52.340;4.962;2022-11-23T09:22:04;2.00;;;1.50;;
36221;SDS011;22266;52.340;4.962;2022-11-23T09:24:30;1.25;;;1.00;;
36221;SDS011;22266;52.340;4.962;2022-11-23T09:26:57;2.00;;;2.00;;
36221;SDS011;22266;52.340;4.962;2022-11-23T09:29:24;5.75;;;3.00;;
36221;SDS011;22266;52.340;4.962;2022-11-23T09:31:51;4.00;;;4.00;;
36221;SDS011;22266;52.340;4.962;2022-11-23T09:34:18;5.00;;;4.00;;
36221;SDS011;22266;52.340;4.962;2022-11-23T09:36:44;2.00;;;2.00;;
36221;SDS011;22266;52.340;4.962;2022-11-23T09:39:10;8.50;;;2.50;;
36221;SDS011;22266;52.340;4.962;2022-11-23T09:47:14;2.00;;;2.00;;
36221;SDS011;22266;52.340;4.962;2022-11-23T09:49:58;2.00;;;2.00;;
36221;SDS011;22266;52.340;4.962;2022-11-23T09:52:39;4.50;;;1.50;;
36221;SDS011;22266;52.340;4.962;2022-11-23T09:55:18;5.25;;;1.50;;
36221;SDS011;22266;52.340;4.962;2022-11-23T09:57:55;3.50;;;3.50;;
36221;SDS011;22266;52.340;4.962;2022-11-23T10:00:26;7.50;;;4.00;;
36221;SDS011;22266;52.340;4.962;2022-11-23T10:03:00;1.50;;;1.00;;
36221;SDS011;22266;52.340;4.962;2022-11-23T10:05:27;4.75;;;3.50;;
36221;SDS011;22266;52.340;4.962;2022-11-23T10:08:03;2.00;;;2.00;;
36221;SDS011;22266;52.340;4.962;2022-11-23T10:10:42;2.50;;;1.00;;
36221;SDS011;22266;52.340;4.962;2022-11-23T10:13:28;4.75;;;2.75;;
36221;SDS011;22266;52.340;4.962;2022-11-23T10:16:10;1.00;;;1.00;;
36221;SDS011;22266;52.340;4.962;2022-11-23T10:26:49;4.00;;;1.75;;
36221;SDS011;22266;52.340;4.962;2022-11-23T10:29:29;2.00;;;1.00;;
36221;SDS011;22266;52.340;4.962;2022-11-23T10:31:58;2.00;;;2.00;;
36221;SDS011;22266;52.340;4.962;2022-11-23T10:34:41;2.50;;;0.25;;
36221;SDS011;22266;52.340;4.962;2022-11-23T10:37:15;3.00;;;3.00;;
36221;SDS011;22266;52.340;4.962;2022-11-23T10:39:43;1.75;;;1.75;;
36221;SDS011;22266;52.340;4.962;2022-11-23T10:42:18;5.25;;;2.00;;
36221;SDS011;22266;52.340;4.962;2022-11-23T10:44:50;2.00;;;2.00;;
36221;SDS011;22266;52.340;4.962;2022-11-23T10:52:57;2.00;;;1.75;;
36221;SDS011;22266;52.340;4.962;2022-11-23T10:55:29;3.00;;;3.00;;
36221;SDS011;22266;52.340;4.962;2022-11-23T11:00:58;5.00;;;3.50;;
36221;SDS011;22266;52.340;4.962;2022-11-23T11:03:28;2.25;;;2.25;;
36221;SDS011;22266;52.340;4.962;2022-11-23T11:05:58;2.00;;;2.00;;
36221;SDS011;22266;52.340;4.962;2022-11-23T11:08:48;4.75;;;4.25;;
36221;SDS011;22266;52.340;4.962;2022-11-23T11:16:52;4.50;;;3.00;;
36221;SDS011;22266;52.340;4.962;2022-11-23T11:19:21;7.00;;;2.50;;
36221;SDS011;22266;52.340;4.962;2022-11-23T11:21:56;5.25;;;4.25;;
36221;SDS011;22266;52.340;4.962;2022-11-23T11:24:30;3.50;;;3.00;;
36221;SDS011;22266;52.340;4.962;2022-11-23T11:27:02;5.00;;;3.00;;
36221;SDS011;22266;52.340;4.962;2022-11-23T11:37:54;5.00;;;2.00;;
36221;SDS011;22266;52.340;4.962;2022-11-23T11:40:31;7.00;;;7.00;;
36221;SDS011;22266;52.340;4.962;2022-11-23T11:43:10;4.75;;;4.50;;
36221;SDS011;22266;52.340;4.962;2022-11-23T11:45:44;6.00;;;5.25;;
36221;SDS011;22266;52.340;4.962;2022-11-23T11:48:32;5.00;;;5.00;;
36221;SDS011;22266;52.340;4.962;2022-11-23T11:53:56;9.00;;;8.00;;
36221;SDS011;22266;52.340;4.962;2022-11-23T11:56:35;4.50;;;4.50;;
36221;SDS011;22266;52.340;4.962;2022-11-23T12:01:35;5.50;;;5.50;;
36221;SDS011;22266;52.340;4.962;2022-11-23T12:04:27;3.25;;;3.25;;
36221;SDS011;22266;52.340;4.962;2022-11-23T12:07:23;4.50;;;3.00;;
36221;SDS011;22266;52.340;4.962;2022-11-23T12:09:56;6.00;;;4.00;;
36221;SDS011;22266;52.340;4.962;2022-11-23T12:12:32;2.00;;;1.25;;
36221;SDS011;22266;52.340;4.962;2022-11-23T12:15:01;4.00;;;4.00;;
36221;SDS011;22266;52.340;4.962;2022-11-23T12:17:52;2.75;;;2.75;;
36221;SDS011;22266;52.340;4.962;2022-11-23T12:26:36;6.00;;;5.75;;
36221;SDS011;22266;52.340;4.962;2022-11-23T12:32:01;3.00;;;2.00;;
36221;SDS011;22266;52.340;4.962;2022-11-23T12:34:39;5.50;;;5.00;;
36221;SDS011;22266;52.340;4.962;2022-11-23T12:40:02;4.00;;;4.00;;
36221;SDS011;22266;52.340;4.962;2022-11-23T12:59:07;4.25;;;1.25;;
36221;SDS011;22266;52.340;4.962;2022-11-23T13:01:37;2.00;;;2.00;;
36221;SDS011;22266;52.340;4.962;2022-11-23T13:13:15;1.00;;;0.00;;
36221;SDS011;22266;52.340;4.962;2022-11-23T13:24:02;1.00;;;1.00;;
36221;SDS011;22266;52.340;4.962;2022-11-23T13:26:29;1.00;;;1.00;;
36221;SDS011;22266;52.340;4.962;2022-11-23T13:28:56;1.00;;;1.00;;
36221;SDS011;22266;52.340;4.962;2022-11-23T13:31:25;2.00;;;1.00;;
36221;SDS011;22266;52.340;4.962;2022-11-23T13:33:54;1.25;;;1.25;;
36221;SDS011;22266;52.340;4.962;2022-11-23T13:42:17;1.00;;;1.00;;
36221;SDS011;22266;52.340;4.962;2022-11-23T13:44:44;1.75;;;1.75;;
36221;SDS011;22266;52.340;4.962;2022-11-23T13:49:41;0.00;;;0.00;;
36221;SDS011;22266;52.340;4.962;2022-11-23T13:57:39;1.50;;;0.75;;
36221;SDS011;22266;52.340;4.962;2022-11-23T14:09:05;1.00;;;1.00;;
36221;SDS011;22266;52.340;4.962;2022-11-23T14:23:02;2.50;;;1.00;;
36221;SDS011;22266;52.340;4.962;2022-11-23T14:42:18;1.50;;;1.50;;
36221;SDS011;22266;52.340;4.962;2022-11-23T14:44:48;1.25;;;1.25;;
36221;SDS011;22266;52.340;4.962;2022-11-23T14:47:25;1.25;;;1.25;;
36221;SDS011;22266;52.340;4.962;2022-11-23T14:49:54;1.75;;;1.25;;
36221;SDS011;22266;52.340;4.962;2022-11-23T14:52:23;1.00;;;1.00;;
36221;SDS011;22266;52.340;4.962;2022-11-23T14:54:54;2.25;;;1.75;;
36221;SDS011;22266;52.340;4.962;2022-11-23T14:57:28;1.25;;;1.25;;
36221;SDS011;22266;52.340;4.962;2022-11-23T15:03:25;5.00;;;1.25;;
36221;SDS011;22266;52.340;4.962;2022-11-23T15:06:12;1.00;;;1.00;;
36221;SDS011;22266;52.340;4.962;2022-11-23T15:08:44;1.00;;;1.00;;
36221;SDS011;22266;52.340;4.962;2022-11-23T15:11:18;1.25;;;1.25;;
36221;SDS011;22266;52.340;4.962;2022-11-23T15:13:49;1.75;;;1.00;;
36221;SDS011;22266;52.340;4.962;2022-11-23T15:16:18;2.50;;;2.25;;
36221;SDS011;22266;52.340;4.962;2022-11-23T15:18:46;3.50;;;3.50;;
36221;SDS011;22266;52.340;4.962;2022-11-23T15:23:53;2.25;;;2.25;;
36221;SDS011;22266;52.340;4.962;2022-11-23T15:26:23;4.00;;;1.25;;
36221;SDS011;22266;52.340;4.962;2022-11-23T15:32:02;1.75;;;1.75;;
36221;SDS011;22266;52.340;4.962;2022-11-23T15:35:06;4.50;;;2.50;;
36221;SDS011;22266;52.340;4.962;2022-11-23T15:37:46;11.00;;;7.00;;
36221;SDS011;22266;52.340;4.962;2022-11-23T15:40:15;71.25;;;52.00;;
36221;SDS011;22266;52.340;4.962;2022-11-23T15:42:44;20.25;;;16.25;;
36221;SDS011;22266;52.340;4.962;2022-11-23T15:48:11;11.00;;;10.00;;
36221;SDS011;22266;52.340;4.962;2022-11-23T15:50:54;3.00;;;1.50;;
36221;SDS011;22266;52.340;4.962;2022-11-23T15:53:26;2.50;;;1.00;;
36221;SDS011;22266;52.340;4.962;2022-11-23T15:55:57;5.50;;;2.00;;
36221;SDS011;22266;52.340;4.962;2022-11-23T15:58:26;4.25;;;4.25;;
36221;SDS011;22266;52.340;4.962;2022-11-23T16:01:04;2.00;;;2.00;;
36221;SDS011;22266;52.340;4.962;2022-11-23T16:03:41;1.75;;;1.75;;
36221;SDS011;22266;52.340;4.962;2022-11-23T16:06:21;2.00;;;1.25;;
36221;SDS011;22266;52.340;4.962;2022-11-23T16:08:49;4.00;;;2.00;;
36221;SDS011;22266;52.340;4.962;2022-11-23T16:11:20;4.75;;;4.00;;
36221;SDS011;22266;52.340;4.962;2022-11-23T16:14:11;5.50;;;5.50;;
36221;SDS011;22266;52.340;4.962;2022-11-23T16:16:42;5.00;;;3.00;;
36221;SDS011;22266;52.340;4.962;2022-11-23T16:19:22;7.25;;;4.00;;
36221;SDS011;22266;52.340;4.962;2022-11-23T16:21:59;5.25;;;5.25;;
36221;SDS011;22266;52.340;4.962;2022-11-23T16:24:28;6.00;;;5.75;;
36221;SDS011;22266;52.340;4.962;2022-11-23T16:26:58;6.00;;;5.50;;
36221;SDS011;22266;52.340;4.962;2022-11-23T16:29:25;6.25;;;5.00;;
36221;SDS011;22266;52.340;4.962;2022-11-23T16:31:57;5.00;;;5.00;;
36221;SDS011;22266;52.340;4.962;2022-11-23T16:34:25;5.50;;;5.50;;
36221;SDS011;22266;52.340;4.962;2022-11-23T16:36:53;6.75;;;5.75;;
36221;SDS011;22266;52.340;4.962;2022-11-23T16:39:21;5.50;;;4.50;;
36221;SDS011;22266;52.340;4.962;2022-11-23T16:41:49;5.00;;;4.00;;
36221;SDS011;22266;52.340;4.962;2022-11-23T16:44:17;5.75;;;5.00;;
36221;SDS011;22266;52.340;4.962;2022-11-23T16:46:44;5.00;;;5.00;;
36221;SDS011;22266;52.340;4.962;2022-11-23T16:49:19;7.00;;;5.00;;
36221;SDS011;22266;52.340;4.962;2022-11-23T16:51:48;6.25;;;5.50;;
36221;SDS011;22266;52.340;4.962;2022-11-23T16:54:22;9.00;;;7.75;;
36221;SDS011;22266;52.340;4.962;2022-11-23T16:56:50;8.00;;;8.00;;
36221;SDS011;22266;52.340;4.962;2022-11-23T16:59:17;10.25;;;8.50;;
36221;SDS011;22266;52.340;4.962;2022-11-23T17:01:45;8.50;;;7.50;;
36221;SDS011;22266;52.340;4.962;2022-11-23T17:04:20;8.00;;;8.00;;
36221;SDS011;22266;52.340;4.962;2022-11-23T17:06:47;8.25;;;8.00;;
36221;SDS011;22266;52.340;4.962;2022-11-23T17:09:14;8.25;;;7.00;;
36221;SDS011;22266;52.340;4.962;2022-11-23T17:11:41;10.50;;;9.50;;
36221;SDS011;22266;52.340;4.962;2022-11-23T17:14:11;10.00;;;10.00;;
36221;SDS011;22266;52.340;4.962;2022-11-23T17:16:44;13.50;;;9.50;;
36221;SDS011;22266;52.340;4.962;2022-11-23T17:19:14;9.50;;;9.50;;
36221;SDS011;22266;52.340;4.962;2022-11-23T17:21:42;13.00;;;13.00;;
36221;SDS011;22266;52.340;4.962;2022-11-23T17:24:09;14.00;;;14.00;;
36221;SDS011;22266;52.340;4.962;2022-11-23T17:26:39;12.50;;;10.00;;
36221;SDS011;22266;52.340;4.962;2022-11-23T17:29:12;13.50;;;13.50;;
36221;SDS011;22266;52.340;4.962;2022-11-23T17:31:40;15.75;;;12.00;;
36221;SDS011;22266;52.340;4.962;2022-11-23T17:34:08;15.75;;;13.75;;
36221;SDS011;22266;52.340;4.962;2022-11-23T17:36:35;14.75;;;14.75;;